Time;durP1;ratioP1;P1;durP2;ratioP2;P2;SDS_P1;SDS_P2;PMS_P1;PMS_P2;Temp;Humidity;BMP_temperature;BMP_pressure;BME280_temperature;BME280_humidity;BME280_pressure;Samples;Min_cycle;Max_cycle;Signal;HPM_P1;HPM_P2
2022/12/17 13:06:59;;;;;;;61.72;24.58;;;0.00;99.90;;;;;;5094664;28;20105;-60
2022/12/17 13:09:26;;;;;;;54.80;18.88;;;0.00;99.90;;;;;;5110317;28;20071;-60
2022/12/17 13:12:03;;;;;;;66.00;24.92;;;0.00;99.90;;;;;;5114630;28;20063;-59
2022/12/17 13:14:33;;;;;;;61.00;24.50;;;0.00;99.90;;;;;;5109969;28;20481;-60
2022/12/17 13:17:20;;;;;;;58.40;23.13;;;0.00;99.90;;;;;;5094614;28;20527;-59
2022/12/17 13:19:56;;;;;;;67.47;25.75;;;0.00;99.90;;;;;;5078554;28;20102;-60
2022/12/17 13:22:23;;;;;;;67.13;25.00;;;-0.10;99.90;;;;;;5094032;28;20066;-59
2022/12/17 13:25:07;;;;;;;63.53;26.17;;;-0.20;99.90;;;;;;5106161;28;20097;-60
2022/12/17 13:27:34;;;;;;;60.95;24.95;;;-0.30;99.90;;;;;;5093713;28;20497;-60
2022/12/17 13:30:17;;;;;;;51.30;18.75;;;-0.40;99.90;;;;;;5093729;28;20048;-60
2022/12/17 13:32:49;;;;;;;67.03;25.50;;;-0.50;99.90;;;;;;5093804;28;20048;-61
2022/12/17 13:35:38;;;;;;;72.30;24.05;;;-0.50;99.90;;;;;;5085396;28;20440;-59
2022/12/17 13:38:20;;;;;;;;;;;-0.60;99.90;;;;;;5111140;28;20047;-60
2022/12/17 13:41:16;;;;;;;60.15;22.33;;;-0.60;99.90;;;;;;5113411;28;19980;-60
2022/12/17 13:43:57;;;;;;;58.42;21.70;;;-0.60;99.90;;;;;;5093737;28;20157;-60
2022/12/17 13:46:42;;;;;;;52.58;21.08;;;-0.60;99.90;;;;;;5093924;28;20453;-60
2022/12/17 13:49:21;;;;;;;53.15;19.50;;;-0.70;99.90;;;;;;5093655;28;20032;-60
2022/12/17 13:52:03;;;;;;;53.38;20.08;;;-0.80;99.90;;;;;;5101451;28;20048;-59
2022/12/17 13:54:37;;;;;;;58.22;21.52;;;-0.90;99.90;;;;;;5093810;28;20073;-60
2022/12/17 13:57:18;;;;;;;55.17;20.95;;;-1.00;99.90;;;;;;5096245;28;20044;-60
2022/12/17 13:59:53;;;;;;;54.67;20.85;;;-1.10;99.90;;;;;;5100503;28;20052;-60
2022/12/17 14:02:32;;;;;;;55.53;21.52;;;-1.20;99.90;;;;;;5093276;28;20068;-60
2022/12/17 14:05:01;;;;;;;58.92;20.77;;;-1.20;99.90;;;;;;5094126;28;20040;-60
2022/12/17 14:07:37;;;;;;;58.47;20.05;;;-1.20;99.90;;;;;;5101984;28;20143;-60
2022/12/17 14:10:12;;;;;;;56.78;21.10;;;-1.20;99.90;;;;;;5093584;28;20047;-60
2022/12/17 14:12:39;;;;;;;62.22;23.35;;;-1.20;99.90;;;;;;5106375;28;20088;-60
2022/12/17 14:15:15;;;;;;;64.57;24.85;;;-1.30;99.90;;;;;;5105492;28;20082;-60
2022/12/17 14:17:47;;;;;;;58.90;23.10;;;-1.30;99.90;;;;;;5103982;28;20036;-60
2022/12/17 14:20:27;;;;;;;58.97;22.60;;;-1.40;99.90;;;;;;5104180;28;20105;-60
2022/12/17 14:22:59;;;;;;;59.15;23.20;;;-1.50;99.90;;;;;;5099646;28;20044;-60
2022/12/17 14:25:31;;;;;;;62.40;22.92;;;-1.50;99.90;;;;;;5101520;28;20039;-60
2022/12/17 14:28:03;;;;;;;65.88;23.08;;;-1.50;99.90;;;;;;5099590;28;20067;-61
2022/12/17 14:30:40;;;;;;;61.50;23.55;;;-1.50;99.90;;;;;;5112589;28;20101;-60
2022/12/17 14:33:31;;;;;;;57.90;22.80;;;-1.50;99.90;;;;;;5101434;28;20414;-60
2022/12/17 14:36:01;;;;;;;60.17;24.15;;;-1.60;99.90;;;;;;5110487;28;20039;-60
2022/12/17 14:38:28;;;;;;;61.58;23.27;;;-1.60;99.90;;;;;;5112879;28;20074;-61
2022/12/17 14:44:00;;;;;;;63.35;24.17;;;-1.70;99.90;;;;;;5102802;28;20067;-61
2022/12/17 14:46:29;;;;;;;64.10;24.23;;;-1.70;99.90;;;;;;5090549;28;20098;-60
2022/12/17 14:49:00;;;;;;;68.57;24.70;;;-1.80;99.90;;;;;;5090730;28;20328;-60
2022/12/17 14:51:37;;;;;;;65.65;23.88;;;-1.90;99.90;;;;;;5091140;28;20494;-60
2022/12/17 14:54:24;;;;;;;63.72;23.73;;;-1.90;99.90;;;;;;5096018;28;20113;-60
2022/12/17 14:56:56;;;;;;;54.65;22.83;;;-1.90;99.90;;;;;;5061282;28;20500;-60
2022/12/17 14:59:37;;;;;;;56.38;22.83;;;-1.90;99.90;;;;;;5099639;28;20048;-60
2022/12/17 15:02:06;;;;;;;67.35;23.85;;;-1.90;99.90;;;;;;5108623;28;20112;-61
2022/12/17 15:04:36;;;;;;;61.58;22.55;;;-2.00;99.90;;;;;;5112544;28;20047;-60
2022/12/17 15:07:04;;;;;;;67.97;23.38;;;-2.00;99.90;;;;;;5104201;28;20503;-60
2022/12/17 15:09:35;;;;;;;66.10;23.52;;;-2.10;99.90;;;;;;5100755;28;20052;-60
2022/12/17 15:12:02;;;;;;;62.00;23.77;;;-2.10;99.90;;;;;;5092050;28;20051;-60
2022/12/17 15:14:29;;;;;;;75.63;25.42;;;-2.10;99.90;;;;;;5099547;28;20136;-60
2022/12/17 15:16:57;;;;;;;68.32;24.85;;;-2.10;99.90;;;;;;5112476;28;20080;-60
2022/12/17 15:19:24;;;;;;;69.15;24.20;;;-2.20;99.90;;;;;;5112244;28;20128;-60
2022/12/17 15:21:51;;;;;;;45.78;17.65;;;-2.20;99.90;;;;;;5107223;28;20515;-60
2022/12/17 15:24:19;;;;;;;69.75;24.40;;;-2.20;99.90;;;;;;5109049;28;20449;-60
2022/12/17 15:26:47;;;;;;;69.30;25.00;;;-2.30;99.90;;;;;;5091921;28;20493;-60
2022/12/17 15:29:13;;;;;;;;;;;-2.20;99.90;;;;;;5092700;28;20097;-60
2022/12/17 15:31:40;;;;;;;61.65;23.48;;;-2.20;99.90;;;;;;5094657;28;20220;-60
2022/12/17 15:34:09;;;;;;;60.60;23.02;;;-2.20;99.90;;;;;;5073655;28;20055;-59
2022/12/17 15:36:36;;;;;;;73.65;24.52;;;-2.20;99.90;;;;;;5091752;28;20093;-60
2022/12/17 15:39:05;;;;;;;78.38;23.85;;;-2.20;99.90;;;;;;5096154;28;20063;-61
2022/12/17 15:44:18;;;;;;;77.82;26.40;;;-2.20;99.90;;;;;;5109414;28;20043;-60
2022/12/17 15:46:45;;;;;;;51.58;18.77;;;-2.30;99.90;;;;;;5111109;28;20072;-60
2022/12/17 15:49:12;;;;;;;73.85;25.85;;;-2.40;99.90;;;;;;5103283;28;20036;-60
2022/12/17 15:51:39;;;;;;;75.75;27.85;;;-2.40;99.90;;;;;;5101849;27;20499;-60
2022/12/17 15:54:06;;;;;;;74.57;26.90;;;-2.40;99.90;;;;;;5116954;27;20043;-60
2022/12/17 15:56:33;;;;;;;83.05;29.70;;;-2.30;99.90;;;;;;5117431;27;20172;-60
2022/12/17 15:59:00;;;;;;;79.30;28.40;;;-2.30;99.90;;;;;;5112524;27;20085;-60
2022/12/17 16:01:27;;;;;;;77.32;28.25;;;-2.30;99.90;;;;;;5098918;28;20066;-60
2022/12/17 16:03:54;;;;;;;83.53;28.52;;;-2.20;99.90;;;;;;5104992;28;20069;-60
2022/12/17 16:06:20;;;;;;;71.25;26.75;;;-2.20;99.90;;;;;;5108158;28;20047;-60
2022/12/17 16:08:47;;;;;;;81.10;28.02;;;-2.20;99.90;;;;;;5100367;28;20065;-59
2022/12/17 16:11:14;;;;;;;71.45;26.50;;;-2.30;99.90;;;;;;5108348;28;20047;-61
2022/12/17 16:13:41;;;;;;;;;;;-2.30;99.90;;;;;;5092391;28;20047;-60
2022/12/17 16:16:08;;;;;;;76.65;26.77;;;-2.20;99.90;;;;;;5107619;28;19982;-60
2022/12/17 16:18:37;;;;;;;;;;;-2.30;99.90;;;;;;5106992;28;20040;-60
2022/12/17 16:21:07;;;;;;;72.68;26.05;;;-2.30;99.90;;;;;;5108987;28;19934;-60
2022/12/17 16:23:34;;;;;;;74.07;26.13;;;-2.40;99.90;;;;;;5110468;28;20089;-60
2022/12/17 16:26:03;;;;;;;81.75;26.58;;;-2.40;99.90;;;;;;5108032;28;20047;-60
2022/12/17 16:28:31;;;;;;;66.50;25.52;;;-2.50;99.90;;;;;;5109113;28;20044;-61
2022/12/17 16:30:59;;;;;;;74.03;26.77;;;-2.40;99.90;;;;;;5108311;28;20050;-60
2022/12/17 16:33:26;;;;;;;69.35;26.33;;;-2.50;99.90;;;;;;5110758;28;20437;-60
2022/12/17 16:36:01;;;;;;;68.50;24.83;;;-2.50;99.90;;;;;;5110660;28;20063;-60
2022/12/17 16:38:28;;;;;;;71.53;26.30;;;-2.50;99.90;;;;;;5107378;28;20074;-60
2022/12/17 16:40:56;;;;;;;71.53;25.95;;;-2.60;99.90;;;;;;5109582;28;20084;-60
2022/12/17 16:43:24;;;;;;;74.68;25.13;;;-2.60;99.90;;;;;;5109024;28;20036;-60
2022/12/17 16:45:52;;;;;;;71.78;26.55;;;-2.70;99.90;;;;;;5110163;28;20044;-59
2022/12/17 16:48:21;;;;;;;74.18;25.58;;;-2.70;99.90;;;;;;5105881;28;20069;-60
2022/12/17 16:50:49;;;;;;;73.15;26.23;;;-2.70;99.90;;;;;;5098211;28;20685;-60
2022/12/17 16:53:17;;;;;;;83.15;27.80;;;-2.70;99.90;;;;;;5110539;28;20031;-60
2022/12/17 16:55:46;;;;;;;73.63;27.90;;;-2.70;99.90;;;;;;5109429;28;20143;-60
2022/12/17 16:58:14;;;;;;;78.10;26.73;;;-2.70;99.90;;;;;;5109162;28;20047;-60
2022/12/17 17:00:41;;;;;;;84.57;29.02;;;-2.80;99.90;;;;;;5110859;28;20040;-60
2022/12/17 17:03:08;;;;;;;73.32;25.73;;;-3.00;99.90;;;;;;5106692;28;20084;-60
2022/12/17 17:05:37;;;;;;;80.82;27.75;;;-3.20;99.90;;;;;;5104595;28;20028;-60
2022/12/17 17:08:05;;;;;;;77.18;29.80;;;-3.30;99.90;;;;;;5110206;28;20036;-59
2022/12/17 17:10:33;;;;;;;;;;;-3.40;99.90;;;;;;5110082;28;20070;-60
2022/12/17 17:13:00;;;;;;;82.68;29.67;;;-3.30;99.90;;;;;;5107363;28;19924;-60
2022/12/17 17:15:27;;;;;;;67.20;21.95;;;-3.30;99.90;;;;;;5109634;28;20039;-59
2022/12/17 17:17:53;;;;;;;89.25;33.38;;;-3.30;99.90;;;;;;5110293;28;20080;-60
2022/12/17 17:20:30;;;;;;;87.20;29.98;;;-3.30;99.90;;;;;;5107237;28;20678;-60
2022/12/17 17:22:58;;;;;;;78.93;28.83;;;-3.30;99.90;;;;;;5105572;28;20050;-60
2022/12/17 17:25:25;;;;;;;86.78;31.77;;;-3.30;99.90;;;;;;5108032;28;20119;-60
2022/12/17 17:28:12;;;;;;;83.80;31.23;;;-3.30;99.90;;;;;;5109573;28;20044;-59
2022/12/17 17:30:39;;;;;;;89.05;29.20;;;-3.40;99.90;;;;;;5105775;28;20043;-61
2022/12/17 17:33:05;;;;;;;87.57;31.20;;;-3.40;99.90;;;;;;5108964;28;20066;-59
2022/12/17 17:35:32;;;;;;;77.55;27.95;;;-3.50;99.90;;;;;;5113708;28;20071;-60
2022/12/17 17:37:59;;;;;;;88.90;30.80;;;-3.50;99.90;;;;;;5113974;28;20074;-59
2022/12/17 17:40:26;;;;;;;;;;;-3.50;99.90;;;;;;5108926;28;20047;-60
2022/12/17 17:42:53;;;;;;;79.85;26.83;;;-3.50;99.90;;;;;;5095012;28;19927;-60
2022/12/17 17:45:19;;;;;;;77.40;28.75;;;-3.40;99.90;;;;;;5111783;28;20074;-60
2022/12/17 17:47:46;;;;;;;70.60;27.25;;;-3.30;99.90;;;;;;5108294;28;20040;-59
2022/12/17 17:50:13;;;;;;;83.22;28.63;;;-3.40;99.90;;;;;;5102861;28;20531;-59
2022/12/17 17:52:39;;;;;;;73.28;25.77;;;-3.50;99.90;;;;;;5103354;28;20040;-60
2022/12/17 17:55:06;;;;;;;55.67;19.20;;;-3.70;99.90;;;;;;5097702;28;20109;-60
2022/12/17 17:57:33;;;;;;;78.57;30.55;;;-3.70;99.90;;;;;;5098906;28;20032;-62
2022/12/17 18:00:00;;;;;;;85.13;30.58;;;-3.80;99.90;;;;;;5102073;28;20094;-62
2022/12/17 18:02:26;;;;;;;93.90;34.10;;;-3.80;99.90;;;;;;5111008;28;20043;-59
2022/12/17 18:04:54;;;;;;;;;;;-3.80;99.90;;;;;;5105052;28;20039;-59
2022/12/17 18:07:20;;;;;;;91.85;31.27;;;-3.70;99.90;;;;;;5094134;28;19920;-59
2022/12/17 18:09:52;;;;;;;91.65;32.80;;;-3.70;99.90;;;;;;5106187;28;20461;-60
2022/12/17 18:15:30;;;;;;;76.28;29.95;;;-3.70;99.90;;;;;;5108476;28;20051;-65
2022/12/17 18:17:56;;;;;;;82.60;26.88;;;-3.70;99.90;;;;;;5059878;28;20110;-66
2022/12/17 18:20:23;;;;;;;68.38;23.90;;;-4.00;99.90;;;;;;5069318;28;20131;-65
2022/12/17 18:22:50;;;;;;;63.70;23.75;;;-4.10;99.90;;;;;;5070287;28;20119;-66
2022/12/17 18:25:17;;;;;;;70.47;23.17;;;-4.10;99.90;;;;;;5071596;28;20040;-65
2022/12/17 18:27:43;;;;;;;71.45;22.75;;;-4.10;99.90;;;;;;5079506;28;20071;-65
2022/12/17 18:30:11;;;;;;;62.40;22.15;;;-4.20;99.90;;;;;;5072593;28;20050;-64
2022/12/17 18:32:38;;;;;;;64.63;22.52;;;-4.30;99.90;;;;;;5076540;28;20075;-64
2022/12/17 18:35:05;;;;;;;58.92;21.55;;;-4.40;99.90;;;;;;5079882;28;20098;-63
2022/12/17 18:37:32;;;;;;;;;;;-4.40;99.90;;;;;;5053428;28;20056;-65
2022/12/17 18:39:59;;;;;;;66.75;21.42;;;-4.30;99.90;;;;;;5058208;28;19998;-65
2022/12/17 18:45:11;;;;;;;69.20;24.95;;;-4.30;99.90;;;;;;5071061;28;20032;-65
2022/12/17 18:47:37;;;;;;;65.57;23.15;;;-4.30;99.90;;;;;;5076416;28;20051;-64
2022/12/17 18:50:05;;;;;;;77.57;25.77;;;-4.30;99.90;;;;;;5070495;28;20037;-65
2022/12/17 18:52:31;;;;;;;;;;;-4.30;99.90;;;;;;5078314;28;20037;-64
2022/12/17 18:54:58;;;;;;;59.78;20.90;;;-4.20;99.90;;;;;;5081436;28;20404;-63
2022/12/17 18:57:25;;;;;;;43.97;16.38;;;-4.10;99.90;;;;;;5065246;28;20037;-65
2022/12/17 18:59:51;;;;;;;56.55;20.42;;;-4.00;99.90;;;;;;5073007;28;20076;-65
2022/12/17 19:02:18;;;;;;;56.95;19.20;;;-3.90;99.90;;;;;;5071031;28;20072;-64
2022/12/17 19:04:45;;;;;;;47.58;18.85;;;-4.00;99.90;;;;;;5072233;28;20064;-64
2022/12/17 19:07:12;;;;;;;52.90;20.60;;;-3.90;99.90;;;;;;5071482;28;20068;-63
2022/12/17 19:09:39;;;;;;;52.35;20.10;;;-4.00;99.90;;;;;;5071903;28;20044;-63
2022/12/17 19:12:06;;;;;;;;;;;-3.90;99.90;;;;;;5071060;28;20036;-63
2022/12/17 19:14:33;;;;;;;64.88;19.70;;;-3.90;99.90;;;;;;5071657;28;19983;-63
2022/12/17 19:17:01;;;;;;;56.75;20.00;;;-3.80;99.90;;;;;;5070900;28;20116;-63
2022/12/17 19:19:28;;;;;;;50.47;19.83;;;-3.80;99.90;;;;;;5070531;28;20041;-63
2022/12/17 19:21:55;;;;;;;54.08;19.85;;;-3.80;99.90;;;;;;5070443;28;20520;-65
2022/12/17 19:24:21;;;;;;;;;;;-3.90;99.90;;;;;;5071171;28;20041;-65
2022/12/17 19:26:49;;;;;;;45.60;16.15;;;-4.00;99.90;;;;;;5070503;28;20385;-65
2022/12/17 19:29:16;;;;;;;45.28;16.27;;;-4.10;99.90;;;;;;5070829;28;20045;-65
2022/12/17 19:31:44;;;;;;;46.03;17.92;;;-4.20;99.90;;;;;;5070664;28;20558;-65
2022/12/17 19:34:14;;;;;;;54.40;18.45;;;-4.30;99.90;;;;;;5070895;28;20044;-65
2022/12/17 19:36:41;;;;;;;55.30;18.02;;;-4.30;99.90;;;;;;5068443;28;20076;-64
2022/12/17 19:39:11;;;;;;;41.55;14.05;;;-4.40;99.90;;;;;;5070320;28;20048;-65
2022/12/17 19:41:38;;;;;;;34.35;14.02;;;-4.50;99.90;;;;;;5072798;28;20036;-65
2022/12/17 19:44:09;;;;;;;36.78;13.15;;;-4.40;99.90;;;;;;5070734;28;20040;-66
2022/12/17 19:46:36;;;;;;;34.25;12.65;;;-4.50;99.90;;;;;;5072346;28;20045;-66
2022/12/17 19:49:04;;;;;;;34.15;12.18;;;-4.40;99.90;;;;;;5035724;28;20126;-65
2022/12/17 19:51:31;;;;;;;;;;;-4.40;99.90;;;;;;5071373;28;20492;-66
2022/12/17 19:53:58;;;;;;;36.45;12.35;;;-4.40;99.90;;;;;;5068957;28;19920;-65
2022/12/17 19:56:34;;;;;;;38.03;14.07;;;-4.40;99.90;;;;;;5068181;28;20091;-65
2022/12/17 19:59:05;;;;;;;48.63;17.50;;;-4.30;99.90;;;;;;5070844;28;20420;-66
2022/12/17 20:01:39;;;;;;;47.80;19.95;;;-4.20;99.90;;;;;;5074131;28;20432;-64
2022/12/17 20:04:06;;;;;;;70.03;26.48;;;-4.20;99.90;;;;;;5064923;28;20037;-63
2022/12/17 20:06:34;;;;;;;83.97;31.90;;;-4.10;99.90;;;;;;5085765;28;20063;-63
2022/12/17 20:09:03;;;;;;;104.30;36.55;;;-4.00;99.90;;;;;;5078820;28;20040;-65
2022/12/17 20:11:34;;;;;;;107.57;39.88;;;-4.00;99.90;;;;;;5074008;28;20451;-64
2022/12/17 20:14:11;;;;;;;115.10;40.40;;;-3.90;99.90;;;;;;5072175;28;20033;-66
2022/12/17 20:16:43;;;;;;;105.85;35.50;;;-3.90;99.90;;;;;;5070453;28;20049;-66
2022/12/17 20:19:22;;;;;;;107.78;38.15;;;-3.90;99.90;;;;;;5073219;28;20041;-66
2022/12/17 20:21:49;;;;;;;111.35;37.10;;;-3.90;99.90;;;;;;5069904;28;20124;-66
2022/12/17 20:24:16;;;;;;;111.22;38.95;;;-3.80;99.90;;;;;;5069260;28;20527;-66
2022/12/17 20:26:45;;;;;;;95.88;34.67;;;-3.80;99.90;;;;;;5070677;28;20102;-66
2022/12/17 20:29:12;;;;;;;85.45;31.70;;;-3.80;99.90;;;;;;5070510;28;20090;-66
2022/12/17 20:31:38;;;;;;;88.55;32.75;;;-3.70;99.90;;;;;;5067937;28;20067;-66
2022/12/17 20:34:11;;;;;;;94.95;35.28;;;-3.70;99.90;;;;;;5070411;28;20049;-64
2022/12/17 20:36:39;;;;;;;92.47;33.45;;;-3.60;99.90;;;;;;5068905;28;20489;-65
2022/12/17 20:39:07;;;;;;;64.45;22.60;;;-3.50;99.90;;;;;;5044338;28;20079;-65
2022/12/17 20:41:35;;;;;;;82.18;31.48;;;-3.60;99.90;;;;;;5072568;28;20040;-65
2022/12/17 20:44:04;;;;;;;87.72;33.42;;;-3.80;99.90;;;;;;5072519;28;20047;-66
2022/12/17 20:46:31;;;;;;;88.50;33.03;;;-3.80;99.90;;;;;;5077019;28;20044;-66
2022/12/17 20:48:59;;;;;;;85.38;32.22;;;-3.90;99.90;;;;;;5071921;28;20063;-66
2022/12/17 20:51:27;;;;;;;72.35;26.20;;;-3.90;99.90;;;;;;5074382;28;20063;-66
2022/12/17 20:53:56;;;;;;;67.90;25.27;;;-3.90;99.90;;;;;;5072534;28;20485;-66
2022/12/17 20:56:26;;;;;;;79.15;28.80;;;-3.90;99.90;;;;;;5074202;28;20068;-66
2022/12/17 20:58:58;;;;;;;85.65;30.00;;;-3.90;99.90;;;;;;5067520;28;20040;-66
2022/12/17 21:01:27;;;;;;;77.38;28.60;;;-3.80;99.90;;;;;;5082564;28;20036;-66
2022/12/17 21:03:55;;;;;;;72.90;25.05;;;-3.80;99.90;;;;;;5069795;28;20041;-66
2022/12/17 21:06:23;;;;;;;73.88;25.10;;;-3.80;99.90;;;;;;5071234;28;20040;-66
2022/12/17 21:08:52;;;;;;;68.88;24.67;;;-3.70;99.90;;;;;;5083054;28;20044;-65
2022/12/17 21:11:22;;;;;;;65.85;24.45;;;-3.80;99.90;;;;;;5080471;28;20685;-65
2022/12/17 21:13:49;;;;;;;60.83;23.27;;;-3.70;99.90;;;;;;5074227;28;20080;-66
2022/12/17 21:16:21;;;;;;;62.53;23.92;;;-3.80;99.90;;;;;;5078290;28;20044;-65
2022/12/17 21:18:48;;;;;;;71.40;23.60;;;-3.90;99.90;;;;;;5071509;28;20041;-66
2022/12/17 21:21:17;;;;;;;57.65;22.55;;;-3.90;99.90;;;;;;5075172;28;20052;-65
2022/12/17 21:23:46;;;;;;;63.83;23.55;;;-3.90;99.90;;;;;;5073527;28;20041;-65
2022/12/17 21:26:14;;;;;;;68.55;23.08;;;-4.30;99.90;;;;;;5075075;28;20037;-63
2022/12/17 21:28:46;;;;;;;59.15;21.23;;;-3.90;99.90;;;;;;5072263;28;20098;-65
2022/12/17 21:31:23;;;;;;;45.33;15.63;;;-3.90;99.90;;;;;;5072538;28;20044;-64
2022/12/17 21:33:53;;;;;;;25.92;10.55;;;-3.90;99.90;;;;;;5073272;28;20032;-64
2022/12/17 21:36:21;;;;;;;26.30;8.75;;;-4.10;99.90;;;;;;5075406;28;20115;-65
2022/12/17 21:38:49;;;;;;;20.70;7.88;;;-4.20;99.90;;;;;;5073494;28;20078;-65
2022/12/17 21:41:31;;;;;;;28.17;8.85;;;-4.40;99.90;;;;;;5072648;28;20048;-66
2022/12/17 21:44:01;;;;;;;18.80;7.82;;;-4.50;99.90;;;;;;5075714;28;20463;-63
2022/12/17 21:46:29;;;;;;;18.33;7.18;;;-4.70;99.90;;;;;;5077894;28;20083;-65
2022/12/17 21:48:58;;;;;;;15.52;6.45;;;-4.80;99.90;;;;;;5072631;28;20040;-65
2022/12/17 21:51:25;;;;;;;18.35;5.43;;;-4.80;99.90;;;;;;5077722;28;20103;-63
2022/12/17 21:53:54;;;;;;;18.90;7.57;;;-4.90;99.90;;;;;;5078185;28;20056;-65
2022/12/17 21:56:22;;;;;;;17.33;6.07;;;-5.00;99.90;;;;;;5074935;28;20049;-65
2022/12/17 21:58:49;;;;;;;21.00;7.35;;;-5.00;99.90;;;;;;5072326;28;20044;-66
2022/12/17 22:01:18;;;;;;;;;;;-4.90;99.90;;;;;;5077090;28;20060;-65
2022/12/17 22:03:47;;;;;;;16.73;6.30;;;-4.90;99.90;;;;;;5078888;28;19920;-64
2022/12/17 22:06:22;;;;;;;19.83;7.22;;;-4.90;99.90;;;;;;5074565;28;20052;-65
2022/12/17 22:08:53;;;;;;;16.77;6.57;;;-4.90;99.90;;;;;;5072963;28;20465;-65
2022/12/17 22:11:28;;;;;;;21.50;7.78;;;-4.90;99.90;;;;;;5073710;28;20092;-65
2022/12/17 22:14:02;;;;;;;23.17;7.55;;;-4.90;99.90;;;;;;5072496;28;20051;-65
2022/12/17 22:16:40;;;;;;;18.38;7.88;;;-4.90;99.90;;;;;;5073714;28;20083;-65
2022/12/17 22:19:13;;;;;;;22.30;7.65;;;-4.80;99.90;;;;;;5074911;28;20559;-66
2022/12/17 22:21:42;;;;;;;18.70;8.05;;;-4.90;99.90;;;;;;5069504;28;20032;-65
2022/12/17 22:24:14;;;;;;;20.10;7.85;;;-4.90;99.90;;;;;;5074795;28;20068;-64
2022/12/17 22:26:42;;;;;;;20.10;8.30;;;-4.90;99.90;;;;;;5072125;28;20064;-65
2022/12/17 22:29:08;;;;;;;;;;;-4.90;99.90;;;;;;5073979;28;20105;-64
2022/12/17 22:34:21;;;;;;;22.92;6.53;;;-5.10;99.90;;;;;;5074432;28;20135;-64
2022/12/17 22:37:08;;;;;;;23.88;7.90;;;-5.10;99.90;;;;;;5073757;28;20135;-65
2022/12/17 22:39:55;;;;;;;20.25;8.13;;;-5.10;99.90;;;;;;5072115;28;20044;-64
2022/12/17 22:45:47;;;;;;;22.98;6.93;;;-5.10;99.90;;;;;;5075935;28;20040;-64
2022/12/17 22:48:14;;;;;;;22.70;7.43;;;-5.10;99.90;;;;;;5080803;28;20082;-64
2022/12/17 22:50:41;;;;;;;23.10;7.68;;;-5.20;99.90;;;;;;5076464;28;20073;-64
2022/12/17 22:53:27;;;;;;;19.25;6.70;;;-5.20;99.90;;;;;;5078754;28;20037;-64
2022/12/17 22:56:02;;;;;;;16.83;6.90;;;-5.50;99.90;;;;;;5076039;28;20127;-65
2022/12/17 22:58:41;;;;;;;20.10;8.10;;;-5.40;99.90;;;;;;5075063;28;20052;-66
2022/12/17 23:01:08;;;;;;;26.00;7.97;;;-5.40;99.90;;;;;;5053964;28;20469;-65
2022/12/17 23:03:35;;;;;;;17.17;6.75;;;-5.30;99.90;;;;;;5075834;28;20032;-65
2022/12/17 23:06:12;;;;;;;21.70;8.25;;;-5.20;99.90;;;;;;5076025;28;20497;-65
2022/12/17 23:08:39;;;;;;;19.35;7.47;;;-5.20;99.90;;;;;;5064470;28;20043;-65
2022/12/17 23:11:11;;;;;;;21.42;7.43;;;-5.10;99.90;;;;;;5085029;28;20408;-65
2022/12/17 23:13:38;;;;;;;24.15;8.82;;;-5.10;99.90;;;;;;5080177;28;20549;-65
2022/12/17 23:16:06;;;;;;;25.00;8.40;;;-5.10;99.90;;;;;;5078305;28;20603;-65
2022/12/17 23:18:33;;;;;;;24.85;8.68;;;-5.10;99.90;;;;;;5074629;28;20047;-66
2022/12/17 23:21:14;;;;;;;20.25;7.03;;;-5.20;99.90;;;;;;5070262;28;20036;-65
2022/12/17 23:23:41;;;;;;;22.58;7.15;;;-5.20;99.90;;;;;;5076610;28;20040;-65
2022/12/17 23:26:14;;;;;;;20.25;6.93;;;-5.30;99.90;;;;;;5080990;28;20044;-65
2022/12/17 23:28:42;;;;;;;17.15;6.15;;;-5.30;99.90;;;;;;5046198;28;20048;-65
2022/12/17 23:31:10;;;;;;;21.05;6.95;;;-5.30;99.90;;;;;;5075477;28;20049;-65
2022/12/17 23:33:37;;;;;;;19.65;6.45;;;-5.30;99.90;;;;;;5061054;28;20409;-65
2022/12/17 23:36:10;;;;;;;20.02;7.00;;;-5.30;99.90;;;;;;5069800;28;20076;-65
2022/12/17 23:38:39;;;;;;;17.38;5.72;;;-5.50;99.90;;;;;;5074864;28;20036;-65
2022/12/17 23:41:11;;;;;;;14.75;4.93;;;-5.60;99.90;;;;;;5082304;28;20044;-65
2022/12/17 23:43:38;;;;;;;16.55;6.25;;;-5.70;99.90;;;;;;5069882;28;20112;-66
2022/12/17 23:46:06;;;;;;;15.43;6.65;;;-5.70;99.90;;;;;;5070284;28;20132;-65
2022/12/17 23:48:37;;;;;;;16.08;6.05;;;-5.70;99.90;;;;;;5072472;28;20037;-65
2022/12/17 23:51:12;;;;;;;11.85;4.78;;;-5.70;99.90;;;;;;5079351;28;20054;-65
2022/12/17 23:53:39;;;;;;;17.08;6.43;;;-5.60;99.90;;;;;;5072716;28;20091;-66
2022/12/17 23:56:10;;;;;;;15.30;6.32;;;-5.60;99.90;;;;;;5069634;28;20040;-65
2022/12/17 23:58:38;;;;;;;14.23;5.20;;;-5.70;99.90;;;;;;5059721;28;20074;-65
